Time;durP1;ratioP1;P1;durP2;ratioP2;P2;SDS_P1;SDS_P2;PMS_P1;PMS_P2;Temp;Humidity;BMP_temperature;BMP_pressure;BME280_temperature;BME280_humidity;BME280_pressure;Samples;Min_cycle;Max_cycle;Signal;HPM_P1;HPM_P2
2022/09/30 00:02:43;;;;;;;16.08;7.03;;;11.30;99.90;;;;;;6281195;28;20518;-82
2022/09/30 00:05:46;;;;;;;13.68;6.03;;;11.30;99.90;;;;;;6281737;28;20120;-82
2022/09/30 00:08:48;;;;;;;14.40;8.07;;;11.30;99.90;;;;;;6281345;28;20173;-82
2022/09/30 00:11:50;;;;;;;14.68;6.65;;;11.30;99.90;;;;;;6281554;28;20430;-82
2022/09/30 00:14:52;;;;;;;12.57;6.32;;;11.30;99.90;;;;;;6281360;28;20037;-83
2022/09/30 00:17:53;;;;;;;14.00;6.35;;;11.30;99.90;;;;;;6282058;28;20053;-82
2022/09/30 00:20:57;;;;;;;13.07;6.18;;;11.30;99.90;;;;;;6280274;28;20056;-82
2022/09/30 00:23:58;;;;;;;20.40;7.43;;;11.20;99.90;;;;;;6281778;28;20060;-83
2022/09/30 00:27:00;;;;;;;15.90;6.50;;;11.20;99.90;;;;;;6281022;28;20410;-84
2022/09/30 00:30:01;;;;;;;15.98;6.78;;;11.20;99.90;;;;;;6281105;28;20056;-83
2022/09/30 00:33:03;;;;;;;14.95;7.18;;;11.20;99.90;;;;;;6279406;28;20049;-82
2022/09/30 00:36:06;;;;;;;16.13;7.03;;;11.20;99.90;;;;;;6277507;28;20052;-81
2022/09/30 00:39:09;;;;;;;14.05;6.00;;;11.20;99.90;;;;;;6274829;28;20052;-81
2022/09/30 00:42:14;;;;;;;16.30;6.93;;;11.20;99.90;;;;;;6277212;28;20057;-82
2022/09/30 00:45:16;;;;;;;13.68;6.97;;;11.20;99.90;;;;;;6280109;28;20765;-83
2022/09/30 00:48:21;;;;;;;16.88;7.38;;;11.20;99.90;;;;;;6280273;28;20037;-82
2022/09/30 00:51:30;;;;;;;19.05;8.38;;;11.20;99.90;;;;;;6282352;28;20060;-81
2022/09/30 00:54:32;;;;;;;16.98;8.98;;;11.20;99.90;;;;;;6282327;28;20049;-81
2022/09/30 00:57:34;;;;;;;16.58;7.00;;;11.20;99.90;;;;;;6281950;28;20049;-82
2022/09/30 01:00:36;;;;;;;16.45;7.38;;;11.10;99.90;;;;;;6282267;28;20530;-82
2022/09/30 01:03:42;;;;;;;15.77;6.57;;;11.10;99.90;;;;;;6282425;28;20049;-81
2022/09/30 01:06:46;;;;;;;13.23;7.53;;;11.00;99.90;;;;;;6282773;28;20041;-82
2022/09/30 01:09:49;;;;;;;14.57;7.43;;;11.10;99.90;;;;;;6281862;28;20045;-81
2022/09/30 01:12:51;;;;;;;26.42;7.57;;;11.00;99.90;;;;;;6281043;28;20051;-82
2022/09/30 01:16:22;;;;;;;15.80;7.50;;;11.00;99.90;;;;;;6281124;28;20049;-82
2022/09/30 01:20:07;;;;;;;15.73;7.55;;;10.90;99.90;;;;;;6282375;28;20059;-82
2022/09/30 01:23:58;;;;;;;15.55;6.85;;;10.80;99.90;;;;;;6279495;28;20422;-82
2022/09/30 01:27:22;;;;;;;14.75;7.53;;;10.60;99.90;;;;;;6273167;28;20052;-81
2022/09/30 01:30:40;;;;;;;14.77;7.60;;;10.50;99.90;;;;;;6269744;28;20063;-82
2022/09/30 01:33:49;;;;;;;12.82;5.93;;;10.40;99.90;;;;;;6279094;28;20491;-82
2022/09/30 01:37:05;;;;;;;16.08;6.22;;;10.40;99.90;;;;;;6278775;28;20049;-82
2022/09/30 01:40:13;;;;;;;17.60;6.55;;;10.50;99.90;;;;;;6278646;28;20061;-81
2022/09/30 01:43:25;;;;;;;14.82;6.25;;;10.50;99.90;;;;;;6280033;28;20067;-82
2022/09/30 01:46:36;;;;;;;15.88;6.90;;;10.50;99.90;;;;;;6280306;28;20049;-82
2022/09/30 01:49:47;;;;;;;19.67;6.90;;;10.60;99.90;;;;;;6279177;28;20045;-82
2022/09/30 01:52:54;;;;;;;15.40;6.93;;;10.60;99.90;;;;;;6277732;28;20045;-81
2022/09/30 01:56:03;;;;;;;15.63;6.63;;;10.70;99.90;;;;;;6277202;28;20419;-82
2022/09/30 01:59:09;;;;;;;17.27;6.78;;;10.60;99.90;;;;;;6276616;28;20052;-81
2022/09/30 02:02:18;;;;;;;15.88;7.38;;;10.70;99.90;;;;;;6276437;28;20564;-82
2022/09/30 02:05:25;;;;;;;19.73;7.10;;;10.70;99.90;;;;;;6275886;28;20051;-82
2022/09/30 02:08:30;;;;;;;22.70;7.80;;;10.70;99.90;;;;;;6275831;28;20044;-81
2022/09/30 02:11:35;;;;;;;15.02;8.13;;;10.70;99.90;;;;;;6276490;28;20052;-82
2022/09/30 02:14:41;;;;;;;20.23;7.47;;;10.70;99.90;;;;;;6276191;28;20045;-82
2022/09/30 02:17:50;;;;;;;20.35;6.97;;;10.80;99.90;;;;;;6276938;28;20056;-82
2022/09/30 02:20:57;;;;;;;16.60;6.43;;;10.90;99.90;;;;;;6275889;28;20053;-82
2022/09/30 02:24:04;;;;;;;15.82;7.32;;;10.90;99.90;;;;;;6275849;28;20403;-81
2022/09/30 02:27:11;;;;;;;15.43;7.47;;;11.00;99.90;;;;;;6275844;28;20045;-83
2022/09/30 02:30:13;;;;;;;14.77;7.25;;;11.00;99.90;;;;;;6276074;28;20052;-82
2022/09/30 02:33:20;;;;;;;21.20;6.97;;;11.00;99.90;;;;;;6276237;28;20059;-80
2022/09/30 02:36:28;;;;;;;15.05;7.45;;;11.00;99.90;;;;;;6275565;28;20045;-83
2022/09/30 02:39:41;;;;;;;16.30;8.05;;;11.00;99.90;;;;;;6276038;28;20085;-82
2022/09/30 02:42:45;;;;;;;15.68;7.88;;;11.10;99.90;;;;;;6276441;28;20061;-81
2022/09/30 02:45:58;;;;;;;15.48;8.10;;;11.10;99.90;;;;;;6275666;28;20056;-81
2022/09/30 02:49:06;;;;;;;26.55;9.85;;;11.10;99.90;;;;;;6275678;28;20045;-82
2022/09/30 02:52:15;;;;;;;20.77;9.70;;;11.10;99.90;;;;;;6275640;28;20552;-82
2022/09/30 02:55:23;;;;;;;15.20;7.82;;;11.10;99.90;;;;;;6276169;28;20047;-82
2022/09/30 02:58:26;;;;;;;17.50;7.90;;;11.20;99.90;;;;;;6275741;28;20052;-82
2022/09/30 03:01:29;;;;;;;17.30;8.75;;;11.10;99.90;;;;;;6279686;28;20056;-82
2022/09/30 03:04:34;;;;;;;16.23;7.10;;;11.20;99.90;;;;;;6286518;28;20064;-81
2022/09/30 03:07:37;;;;;;;18.70;6.85;;;11.10;99.90;;;;;;6285330;28;20048;-82
2022/09/30 03:10:40;;;;;;;17.23;6.38;;;11.00;99.90;;;;;;6278169;28;20049;-81
2022/09/30 03:14:17;;;;;;;17.05;6.35;;;11.00;99.90;;;;;;6276900;28;20314;-81
2022/09/30 03:17:55;;;;;;;11.13;5.97;;;10.90;99.90;;;;;;6277145;28;20494;-81
2022/09/30 03:21:08;;;;;;;12.50;6.47;;;10.80;99.90;;;;;;6266922;28;20056;-81
2022/09/30 03:24:33;;;;;;;16.65;7.22;;;10.70;99.90;;;;;;6278183;28;20475;-82
2022/09/30 03:27:41;;;;;;;14.35;6.80;;;10.70;99.90;;;;;;6277443;28;20049;-82
2022/09/30 03:30:51;;;;;;;14.48;6.25;;;10.80;99.90;;;;;;6278226;28;20041;-81
2022/09/30 03:33:59;;;;;;;20.88;7.65;;;10.90;99.90;;;;;;6277963;28;20049;-82
2022/09/30 03:37:11;;;;;;;24.55;7.90;;;11.00;99.90;;;;;;6277416;28;20045;-82
2022/09/30 03:40:18;;;;;;;19.48;7.95;;;11.10;99.90;;;;;;6277721;28;20048;-82
2022/09/30 03:43:26;;;;;;;24.02;9.45;;;11.20;99.90;;;;;;6278035;28;20049;-81
2022/09/30 03:46:30;;;;;;;;;;;11.20;99.90;;;;;;6278043;28;20056;-81
2022/09/30 03:49:37;;;;;;;21.83;8.73;;;11.10;99.90;;;;;;6277842;28;19920;-82
2022/09/30 03:52:40;;;;;;;16.17;8.13;;;11.10;99.90;;;;;;6277464;28;20055;-82
2022/09/30 03:55:48;;;;;;;21.65;8.45;;;11.10;99.90;;;;;;6276721;28;20045;-82
2022/09/30 03:58:50;;;;;;;19.08;8.25;;;11.10;99.90;;;;;;6278320;28;20406;-82
2022/09/30 04:01:52;;;;;;;27.35;10.00;;;11.10;99.90;;;;;;6277897;28;20138;-82
2022/09/30 04:04:54;;;;;;;22.13;8.98;;;11.10;99.90;;;;;;6277704;28;20435;-82
2022/09/30 04:07:57;;;;;;;24.75;8.10;;;11.00;99.90;;;;;;6277843;28;20053;-81
2022/09/30 04:10:58;;;;;;;18.05;8.52;;;10.90;99.90;;;;;;6280986;28;20049;-82
2022/09/30 04:14:00;;;;;;;18.88;8.13;;;11.00;99.90;;;;;;6284279;28;20059;-82
2022/09/30 04:17:03;;;;;;;22.98;9.38;;;11.00;99.90;;;;;;6283896;28;20045;-82
2022/09/30 04:20:05;;;;;;;19.63;8.85;;;11.00;99.90;;;;;;6281817;28;20395;-82
2022/09/30 04:23:08;;;;;;;18.33;7.88;;;11.10;99.90;;;;;;6282236;28;20041;-82
2022/09/30 04:26:12;;;;;;;26.88;9.15;;;11.10;99.90;;;;;;6282051;28;20049;-82
2022/09/30 04:29:14;;;;;;;25.48;10.13;;;11.20;99.90;;;;;;6282414;28;20041;-82
2022/09/30 04:32:15;;;;;;;18.80;9.45;;;11.20;99.90;;;;;;6283661;28;20056;-82
2022/09/30 04:35:17;;;;;;;27.92;10.55;;;11.30;99.90;;;;;;6283520;28;20045;-82
2022/09/30 04:38:20;;;;;;;32.55;10.18;;;11.40;99.90;;;;;;6283342;28;20049;-82
2022/09/30 04:41:22;;;;;;;31.35;10.52;;;11.30;99.90;;;;;;6283480;28;20048;-82
2022/09/30 04:44:24;;;;;;;27.15;10.07;;;11.30;99.90;;;;;;6281392;28;20053;-82
2022/09/30 04:47:25;;;;;;;22.23;9.20;;;11.30;99.90;;;;;;6282321;28;20049;-81
2022/09/30 04:50:27;;;;;;;23.92;9.63;;;11.30;99.90;;;;;;6282945;28;20041;-82
2022/09/30 04:53:30;;;;;;;23.08;8.75;;;11.30;99.90;;;;;;6282382;28;20045;-81
2022/09/30 04:56:32;;;;;;;30.42;11.48;;;11.30;99.90;;;;;;6282768;28;20048;-81
2022/09/30 04:59:34;;;;;;;27.45;11.18;;;11.30;99.90;;;;;;6282151;28;20056;-81
2022/09/30 05:02:35;;;;;;;24.85;10.50;;;11.30;99.90;;;;;;6283148;28;20166;-81
2022/09/30 05:05:37;;;;;;;24.63;11.45;;;11.30;99.90;;;;;;6283699;28;20056;-81
2022/09/30 05:08:42;;;;;;;29.40;11.18;;;11.30;99.90;;;;;;6282520;28;20041;-81
2022/09/30 05:11:43;;;;;;;26.40;11.18;;;11.30;99.90;;;;;;6283190;28;20063;-81
2022/09/30 05:14:45;;;;;;;26.70;10.18;;;11.30;99.90;;;;;;6281238;28;20045;-81
2022/09/30 05:17:49;;;;;;;22.55;9.85;;;11.30;99.90;;;;;;6246026;28;20048;-81
2022/09/30 05:20:51;;;;;;;25.88;9.60;;;11.40;99.90;;;;;;6277780;28;20494;-80
2022/09/30 05:23:55;;;;;;;26.30;11.20;;;11.30;99.90;;;;;;6259090;28;20049;-80
2022/09/30 05:26:56;;;;;;;35.30;12.38;;;11.30;99.90;;;;;;6258723;28;20407;-81
2022/09/30 05:29:58;;;;;;;27.45;10.52;;;11.20;99.90;;;;;;6276145;28;20052;-81
2022/09/30 05:33:00;;;;;;;28.17;10.43;;;11.10;99.90;;;;;;6279255;28;20045;-81
2022/09/30 05:36:03;;;;;;;33.60;11.18;;;11.10;99.90;;;;;;6280232;28;20045;-81
2022/09/30 05:39:06;;;;;;;32.50;10.20;;;11.00;99.90;;;;;;6281636;28;20175;-81
2022/09/30 05:42:08;;;;;;;27.10;9.60;;;11.00;99.90;;;;;;6271685;28;20056;-80
2022/09/30 05:45:10;;;;;;;24.42;10.13;;;11.10;99.90;;;;;;6256051;28;20050;-80
2022/09/30 05:48:12;;;;;;;30.42;9.90;;;11.10;99.90;;;;;;6254742;28;20045;-80
2022/09/30 05:51:14;;;;;;;35.60;12.77;;;11.10;99.90;;;;;;6267528;28;20045;-81
2022/09/30 05:54:17;;;;;;;36.05;13.50;;;11.10;99.90;;;;;;6275626;28;20063;-81
2022/09/30 05:57:19;;;;;;;47.20;14.65;;;11.20;99.90;;;;;;6280714;28;20128;-81
2022/09/30 06:00:21;;;;;;;34.25;13.63;;;11.20;99.90;;;;;;6281301;28;20033;-81
2022/09/30 06:03:23;;;;;;;45.22;15.77;;;11.20;99.90;;;;;;6283472;28;20045;-81
2022/09/30 06:06:25;;;;;;;39.65;16.02;;;11.30;99.90;;;;;;6282618;28;20056;-80
2022/09/30 06:09:28;;;;;;;50.92;15.40;;;11.30;99.90;;;;;;6283327;28;20060;-81
2022/09/30 06:12:29;;;;;;;44.15;14.55;;;11.50;99.90;;;;;;6284601;28;20421;-81
2022/09/30 06:15:31;;;;;;;49.75;15.93;;;11.60;99.90;;;;;;6278619;28;20045;-80
2022/09/30 06:18:33;;;;;;;47.95;15.82;;;11.70;99.90;;;;;;6277778;28;20060;-81
2022/09/30 06:21:34;;;;;;;42.40;15.07;;;11.90;99.90;;;;;;6275687;28;20041;-81
2022/09/30 06:24:37;;;;;;;49.00;15.48;;;12.10;99.90;;;;;;6273322;28;20402;-81
2022/09/30 06:27:39;;;;;;;43.65;13.77;;;12.10;99.90;;;;;;6268045;28;20053;-82
2022/09/30 06:30:41;;;;;;;41.08;13.02;;;12.20;99.90;;;;;;6253800;28;20415;-81
2022/09/30 06:33:42;;;;;;;36.58;13.73;;;12.30;99.90;;;;;;6251573;28;20053;-81
2022/09/30 06:36:44;;;;;;;40.65;15.00;;;12.40;99.90;;;;;;6252427;28;20045;-81
2022/09/30 06:39:47;;;;;;;42.70;14.15;;;12.50;99.90;;;;;;6251746;28;20046;-81
2022/09/30 06:42:49;;;;;;;38.33;14.80;;;12.50;99.90;;;;;;6253215;28;20045;-81
2022/09/30 06:45:51;;;;;;;33.95;12.18;;;12.50;99.90;;;;;;6249919;28;20045;-81
2022/09/30 06:48:55;;;;;;;30.27;13.38;;;12.60;99.90;;;;;;6248225;28;20041;-81
2022/09/30 06:51:59;;;;;;;33.97;12.93;;;12.70;99.90;;;;;;6253663;28;20037;-81
2022/09/30 06:55:02;;;;;;;21.35;11.23;;;12.70;99.90;;;;;;6277418;28;20178;-82
2022/09/30 06:58:05;;;;;;;27.33;12.15;;;12.80;99.90;;;;;;6276899;28;20052;-82
2022/09/30 07:01:07;;;;;;;22.35;11.73;;;12.80;99.90;;;;;;6276619;28;20041;-81
2022/09/30 07:04:10;;;;;;;23.38;11.30;;;13.00;99.90;;;;;;6278136;28;20513;-82
2022/09/30 07:07:11;;;;;;;22.45;11.15;;;13.00;99.90;;;;;;6278290;28;20045;-81
2022/09/30 07:10:14;;;;;;;18.38;9.43;;;12.90;99.90;;;;;;6278409;28;20055;-81
2022/09/30 07:13:16;;;;;;;21.40;11.23;;;13.00;99.90;;;;;;6278856;28;20442;-81
2022/09/30 07:16:19;;;;;;;18.60;11.40;;;13.40;99.90;;;;;;6282220;28;20049;-81
2022/09/30 07:19:22;;;;;;;20.90;9.40;;;13.90;99.90;;;;;;6282225;28;20041;-81
2022/09/30 07:22:30;;;;;;;17.55;8.77;;;14.10;99.90;;;;;;6273195;28;20052;-81
2022/09/30 07:25:33;;;;;;;15.77;8.65;;;14.20;99.90;;;;;;6259494;28;20049;-81
2022/09/30 07:28:38;;;;;;;13.02;8.38;;;14.50;99.90;;;;;;6254101;28;20050;-82
2022/09/30 07:31:40;;;;;;;11.35;7.20;;;14.80;99.90;;;;;;6254167;28;20045;-82
2022/09/30 07:34:42;;;;;;;12.27;7.32;;;15.10;99.90;;;;;;6252010;28;20045;-81
2022/09/30 07:37:44;;;;;;;11.75;7.60;;;15.10;99.90;;;;;;6251346;28;20049;-81
2022/09/30 07:40:57;;;;;;;12.38;6.60;;;15.10;99.90;;;;;;6251837;28;20045;-81
2022/09/30 07:43:59;;;;;;;12.32;7.18;;;15.30;99.90;;;;;;6250969;28;20060;-81
2022/09/30 07:47:01;;;;;;;8.43;6.45;;;15.60;99.90;;;;;;6255611;28;20038;-81
2022/09/30 07:50:03;;;;;;;10.35;6.63;;;15.70;99.90;;;;;;6259869;28;20053;-82
2022/09/30 07:53:05;;;;;;;12.52;7.10;;;15.90;99.90;;;;;;6272013;28;20044;-81
2022/09/30 07:56:10;;;;;;;10.13;6.38;;;16.10;99.90;;;;;;6280645;28;20049;-81
2022/09/30 07:59:13;;;;;;;12.68;6.75;;;16.30;99.90;;;;;;6279910;28;20045;-81
2022/09/30 08:02:16;;;;;;;9.32;5.90;;;16.30;99.90;;;;;;6280378;28;20064;-82
2022/09/30 08:05:18;;;;;;;9.57;6.05;;;16.10;99.90;;;;;;6280152;28;20055;-81
2022/09/30 08:08:20;;;;;;;9.93;5.88;;;15.90;99.90;;;;;;6280585;28;20056;-81
2022/09/30 08:11:23;;;;;;;9.98;6.47;;;15.80;99.90;;;;;;6281091;28;20526;-80
2022/09/30 08:14:28;;;;;;;9.50;5.72;;;15.70;99.90;;;;;;6277600;28;20064;-82
2022/09/30 08:17:29;;;;;;;8.30;6.28;;;15.80;99.90;;;;;;6262548;28;20057;-81
2022/09/30 08:20:31;;;;;;;8.70;5.90;;;15.80;99.90;;;;;;6258377;28;20041;-81
2022/09/30 08:23:33;;;;;;;11.90;5.63;;;16.00;99.90;;;;;;6275063;28;20056;-82
2022/09/30 08:26:37;;;;;;;7.90;5.88;;;16.10;99.90;;;;;;6279610;28;20176;-81
2022/09/30 08:29:38;;;;;;;8.98;5.97;;;16.30;99.90;;;;;;6278568;28;20064;-82
2022/09/30 08:32:40;;;;;;;10.20;6.80;;;16.40;99.90;;;;;;6279439;28;20048;-81
2022/09/30 08:35:42;;;;;;;7.22;5.57;;;16.50;99.50;;;;;;6279658;28;20421;-82
2022/09/30 08:38:44;;;;;;;10.18;6.38;;;16.60;99.30;;;;;;6277836;28;20052;-81
2022/09/30 08:42:04;;;;;;;11.05;5.47;;;16.80;99.20;;;;;;6279024;28;20435;-81
2022/09/30 08:45:20;;;;;;;9.45;6.03;;;17.20;99.10;;;;;;6279513;28;20060;-82
2022/09/30 08:48:35;;;;;;;8.68;6.18;;;17.60;98.90;;;;;;6279463;28;20529;-82
2022/09/30 08:51:41;;;;;;;7.28;5.47;;;18.00;98.40;;;;;;6278354;28;20059;-82
2022/09/30 08:54:48;;;;;;;10.32;5.30;;;18.20;97.80;;;;;;6258969;28;20052;-82
2022/09/30 08:57:53;;;;;;;6.18;4.88;;;18.30;97.30;;;;;;6255026;28;20045;-82
2022/09/30 09:00:59;;;;;;;12.77;5.68;;;18.30;97.20;;;;;;6255584;28;20046;-82
2022/09/30 09:04:02;;;;;;;8.80;4.85;;;18.30;96.60;;;;;;6254690;28;20052;-82
2022/09/30 09:07:10;;;;;;;9.55;5.72;;;18.10;96.20;;;;;;6253611;28;20164;-82
2022/09/30 09:10:24;;;;;;;10.27;5.13;;;17.90;96.00;;;;;;6254034;28;20495;-81
2022/09/30 09:13:41;;;;;;;8.40;5.47;;;17.80;96.30;;;;;;6255547;28;20064;-81
2022/09/30 09:16:49;;;;;;;9.25;5.03;;;17.70;96.40;;;;;;6262979;28;20041;-81
2022/09/30 09:19:59;;;;;;;7.25;4.45;;;17.70;96.30;;;;;;6259980;28;20041;-81
2022/09/30 09:23:03;;;;;;;14.48;4.93;;;17.60;96.20;;;;;;6270652;28;20048;-82
2022/09/30 09:26:05;;;;;;;9.57;5.80;;;17.60;96.20;;;;;;6280191;28;20056;-82
2022/09/30 09:29:32;;;;;;;9.07;4.93;;;17.60;96.20;;;;;;6277917;28;20052;-81
2022/09/30 09:32:34;;;;;;;6.38;4.63;;;17.70;96.30;;;;;;6277374;28;20045;-82
2022/09/30 09:35:47;;;;;;;7.13;5.53;;;17.90;96.10;;;;;;6278909;28;20045;-82
2022/09/30 09:39:07;;;;;;;10.63;5.95;;;18.30;95.70;;;;;;6278265;28;20373;-81
2022/09/30 09:42:29;;;;;;;9.80;4.70;;;18.90;95.00;;;;;;6279373;28;20052;-82
2022/09/30 09:45:38;;;;;;;9.85;4.82;;;19.50;92.90;;;;;;6279520;28;20067;-82
2022/09/30 09:48:39;;;;;;;7.78;5.05;;;19.70;92.20;;;;;;6278782;28;20049;-82
2022/09/30 09:51:47;;;;;;;7.43;4.55;;;20.20;92.00;;;;;;6273680;28;20045;-82
2022/09/30 09:54:51;;;;;;;7.77;4.33;;;20.60;91.20;;;;;;6278556;28;20048;-82
2022/09/30 09:58:09;;;;;;;7.80;4.90;;;21.00;90.40;;;;;;6279164;28;20407;-82
2022/09/30 10:01:31;;;;;;;6.50;4.60;;;21.20;89.00;;;;;;6277997;28;20422;-82
2022/09/30 10:04:34;;;;;;;7.50;4.68;;;21.40;87.40;;;;;;6278923;28;20041;-82
2022/09/30 10:07:35;;;;;;;6.40;4.13;;;21.60;85.20;;;;;;6278120;28;20049;-82
2022/09/30 10:10:49;;;;;;;7.22;4.20;;;21.70;84.70;;;;;;6278596;28;20541;-82
2022/09/30 10:13:55;;;;;;;9.68;4.25;;;22.00;83.70;;;;;;6276932;28;20049;-81
2022/09/30 10:17:00;;;;;;;8.52;4.20;;;22.30;82.90;;;;;;6273580;28;20529;-80
2022/09/30 10:20:06;;;;;;;6.97;4.13;;;22.80;80.80;;;;;;6262975;28;20079;-81
2022/09/30 10:23:17;;;;;;;7.07;3.78;;;23.30;78.20;;;;;;6260633;28;20411;-82
2022/09/30 10:26:20;;;;;;;8.32;3.55;;;23.20;75.50;;;;;;6254785;28;20045;-80
2022/09/30 10:29:28;;;;;;;4.95;3.20;;;23.10;75.60;;;;;;6252554;28;20050;-82
2022/09/30 10:32:32;;;;;;;5.05;3.58;;;23.10;76.10;;;;;;6251596;28;20049;-81
2022/09/30 10:35:34;;;;;;;9.52;3.97;;;23.30;74.60;;;;;;6252876;28;20060;-81
2022/09/30 10:38:44;;;;;;;7.82;4.00;;;23.40;74.10;;;;;;6252183;28;20046;-81
2022/09/30 10:41:46;;;;;;;7.68;3.53;;;23.50;73.50;;;;;;6253435;28;20045;-83
2022/09/30 10:44:53;;;;;;;8.40;3.92;;;23.40;72.90;;;;;;6252309;28;20099;-81
2022/09/30 10:47:57;;;;;;;7.40;3.22;;;23.40;72.60;;;;;;6251466;28;20438;-82
2022/09/30 10:50:59;;;;;;;6.03;3.55;;;23.60;72.30;;;;;;6263313;28;20049;-82
2022/09/30 10:54:01;;;;;;;6.45;3.72;;;23.60;71.70;;;;;;6267774;28;20053;-82
2022/09/30 10:57:03;;;;;;;5.28;3.33;;;23.80;71.20;;;;;;6276315;28;20392;-81
2022/09/30 11:00:10;;;;;;;7.00;3.63;;;24.50;70.10;;;;;;6277431;28;20052;-82
2022/09/30 11:03:18;;;;;;;8.90;3.63;;;25.10;67.80;;;;;;6277537;28;20089;-81
2022/09/30 11:06:20;;;;;;;;;;;25.70;65.40;;;;;;6279529;28;20053;-82
2022/09/30 11:09:32;;;;;;;9.38;3.65;;;26.20;63.80;;;;;;6277707;28;20378;-81
2022/09/30 11:12:42;;;;;;;5.55;3.10;;;26.30;63.40;;;;;;6276491;28;20060;-81
2022/09/30 11:15:55;;;;;;;4.70;2.90;;;26.30;62.10;;;;;;6278116;28;20052;-82
2022/09/30 11:19:04;;;;;;;5.85;2.88;;;26.30;61.70;;;;;;6268968;28;20038;-82
2022/09/30 11:22:22;;;;;;;7.72;3.10;;;26.30;61.60;;;;;;6266553;28;20045;-81
2022/09/30 11:25:26;;;;;;;;;;;26.10;62.10;;;;;;6276958;28;20049;-82
2022/09/30 11:28:49;;;;;;;8.00;4.07;;;26.10;61.50;;;;;;6278910;28;19925;-81
2022/09/30 11:31:59;;;;;;;6.32;4.75;;;25.90;61.30;;;;;;6276966;28;20045;-82
2022/09/30 11:35:13;;;;;;;10.57;5.10;;;25.70;61.40;;;;;;6276720;28;20044;-81
2022/09/30 11:38:29;;;;;;;14.15;9.90;;;25.60;61.50;;;;;;6273966;28;20049;-82
2022/09/30 11:41:34;;;;;;;11.63;3.25;;;25.70;62.10;;;;;;6277767;28;20045;-81
2022/09/30 11:44:37;;;;;;;6.72;2.80;;;25.70;61.10;;;;;;6277013;28;20064;-81
2022/09/30 11:47:56;;;;;;;4.57;2.80;;;25.60;61.60;;;;;;6277145;28;20525;-81
2022/09/30 11:51:09;;;;;;;6.45;2.67;;;25.30;61.10;;;;;;6269815;28;20048;-83
2022/09/30 11:54:27;;;;;;;12.88;3.28;;;25.30;61.40;;;;;;6270801;28;20053;-82
2022/09/30 11:57:36;;;;;;;6.93;2.40;;;25.50;60.30;;;;;;6275054;28;20057;-81
2022/09/30 12:00:42;;;;;;;4.20;2.40;;;25.60;59.30;;;;;;6274802;28;20589;-82
2022/09/30 12:03:49;;;;;;;5.18;2.42;;;25.70;59.40;;;;;;6275928;28;20056;-82
2022/09/30 12:06:55;;;;;;;4.80;2.50;;;25.80;58.50;;;;;;6274495;28;20049;-81
2022/09/30 12:10:01;;;;;;;8.00;2.40;;;25.90;58.20;;;;;;6276569;28;20049;-82
2022/09/30 12:13:06;;;;;;;5.70;2.65;;;26.00;58.00;;;;;;6277010;28;20045;-83
2022/09/30 12:16:14;;;;;;;5.70;2.85;;;26.20;57.10;;;;;;6276710;28;20049;-82
2022/09/30 12:19:20;;;;;;;7.63;2.92;;;26.40;56.10;;;;;;6277485;28;20045;-82
2022/09/30 12:22:28;;;;;;;6.20;2.58;;;26.50;55.70;;;;;;6266076;28;20052;-81
2022/09/30 12:25:32;;;;;;;3.28;2.28;;;26.70;55.30;;;;;;6254044;28;20049;-83
2022/09/30 12:32:08;;;;;;;4.93;2.22;;;27.10;54.30;;;;;;6252715;28;20057;-82
2022/09/30 12:35:31;;;;;;;12.50;5.53;;;27.20;53.20;;;;;;6256033;28;20042;-83
2022/09/30 12:38:57;;;;;;;4.28;2.38;;;27.40;52.30;;;;;;6255278;28;20053;-83
2022/09/30 12:42:13;;;;;;;4.72;1.90;;;27.50;51.50;;;;;;6258564;28;20050;-82
2022/09/30 12:45:45;;;;;;;2.13;1.67;;;27.40;52.70;;;;;;6257576;28;20045;-82
2022/09/30 12:48:52;;;;;;;3.58;2.00;;;27.50;52.50;;;;;;6256846;28;20052;-83
2022/09/30 12:51:57;;;;;;;5.67;2.37;;;27.50;53.00;;;;;;6270198;28;20053;-82
2022/09/30 12:55:05;;;;;;;6.63;2.40;;;27.70;52.10;;;;;;6283884;28;20690;-83
2022/09/30 12:58:19;;;;;;;3.78;2.10;;;27.90;52.20;;;;;;6283894;28;20053;-82
2022/09/30 13:01:25;;;;;;;8.00;2.13;;;28.00;52.00;;;;;;6282955;28;20048;-83
2022/09/30 13:04:33;;;;;;;3.13;1.98;;;28.10;50.80;;;;;;6283472;28;20044;-81
2022/09/30 13:07:35;;;;;;;2.95;1.45;;;28.20;50.80;;;;;;6282118;28;20072;-82
2022/09/30 13:10:46;;;;;;;6.68;2.03;;;28.30;49.50;;;;;;6282748;28;20045;-81
2022/09/30 13:14:02;;;;;;;6.65;1.80;;;28.40;49.40;;;;;;6283148;28;20060;-82
2022/09/30 13:17:27;;;;;;;3.92;1.77;;;28.30;49.80;;;;;;6281834;28;20067;-82
2022/09/30 13:20:53;;;;;;;2.58;1.75;;;28.20;49.70;;;;;;6267633;28;20049;-82
2022/09/30 13:23:57;;;;;;;4.40;2.03;;;27.70;50.30;;;;;;6271722;28;20053;-82
2022/09/30 13:27:14;;;;;;;2.80;1.65;;;27.50;51.00;;;;;;6281820;28;20098;-82
2022/09/30 13:30:40;;;;;;;4.53;2.17;;;27.20;50.80;;;;;;6271091;28;20060;-84
2022/09/30 13:33:44;;;;;;;4.95;1.83;;;26.80;51.40;;;;;;6289709;28;20066;-84
2022/09/30 13:36:58;;;;;;;7.45;2.15;;;26.60;52.30;;;;;;6282024;28;20049;-83
2022/09/30 13:40:03;;;;;;;2.47;1.58;;;26.40;52.30;;;;;;6280118;28;20049;-83
2022/09/30 13:43:10;;;;;;;6.85;1.80;;;26.30;53.20;;;;;;6279797;28;20037;-84
2022/09/30 13:46:18;;;;;;;3.50;1.90;;;26.30;53.00;;;;;;6282898;28;20067;-84
2022/09/30 13:49:24;;;;;;;5.50;1.92;;;26.30;52.80;;;;;;6282291;28;20048;-83
2022/09/30 13:52:30;;;;;;;4.07;1.80;;;26.50;52.20;;;;;;6273766;28;20065;-83
2022/09/30 13:55:36;;;;;;;4.85;1.85;;;26.50;50.70;;;;;;6280699;28;20059;-83
2022/09/30 13:59:09;;;;;;;1.95;1.17;;;26.50;51.60;;;;;;6281114;28;20049;-83
2022/09/30 14:02:38;;;;;;;4.35;1.70;;;26.60;50.50;;;;;;6281881;28;20049;-83
2022/09/30 14:05:44;;;;;;;;;;;26.60;50.70;;;;;;6279296;28;20049;-84
2022/09/30 14:09:09;;;;;;;5.32;1.23;;;26.50;50.90;;;;;;6279297;28;20291;-83
2022/09/30 14:12:31;;;;;;;3.75;1.50;;;26.50;50.60;;;;;;6281232;28;20044;-83
2022/09/30 14:15:56;;;;;;;4.32;1.20;;;26.50;49.40;;;;;;6280337;28;20051;-83
2022/09/30 14:19:27;;;;;;;3.28;1.42;;;26.20;49.50;;;;;;6279332;28;20119;-82
2022/09/30 14:22:29;;;;;;;6.72;1.90;;;25.80;51.30;;;;;;6247417;28;20050;-83
2022/09/30 14:25:38;;;;;;;3.90;1.13;;;25.80;50.70;;;;;;6256364;28;20454;-83
2022/09/30 14:28:45;;;;;;;2.42;1.45;;;25.90;49.60;;;;;;6255761;28;20049;-83
2022/09/30 14:31:48;;;;;;;5.95;1.20;;;26.20;49.50;;;;;;6254355;28;20045;-83
2022/09/30 14:34:50;;;;;;;2.33;1.08;;;26.60;49.20;;;;;;6248430;28;20045;-84
2022/09/30 14:37:54;;;;;;;4.35;1.15;;;27.00;49.20;;;;;;6255270;28;20060;-84
2022/09/30 14:41:06;;;;;;;2.72;0.82;;;27.20;48.40;;;;;;6263482;28;20396;-83
2022/09/30 14:44:16;;;;;;;0.95;0.75;;;27.40;48.50;;;;;;6282417;28;20071;-83
2022/09/30 14:47:21;;;;;;;7.28;1.33;;;27.50;48.00;;;;;;6281134;28;20426;-84
2022/09/30 14:50:27;;;;;;;3.33;1.13;;;27.40;47.00;;;;;;6278304;28;20052;-84
2022/09/30 14:53:30;;;;;;;63.85;25.80;;;27.20;47.70;;;;;;6273001;28;20048;-83
2022/09/30 14:56:35;;;;;;;77.53;36.20;;;27.00;48.30;;;;;;6280309;28;20052;-84
2022/09/30 14:59:37;;;;;;;74.30;35.80;;;26.90;48.50;;;;;;6278131;28;20041;-84
2022/09/30 15:02:45;;;;;;;61.35;28.50;;;26.70;48.50;;;;;;6279602;28;20041;-83
2022/09/30 15:05:47;;;;;;;2.63;1.17;;;26.50;48.60;;;;;;6280026;28;20048;-84
2022/09/30 15:08:50;;;;;;;4.82;1.33;;;26.20;48.30;;;;;;6279621;28;20052;-84
2022/09/30 15:11:52;;;;;;;5.75;1.80;;;26.00;48.80;;;;;;6278769;28;20414;-83
2022/09/30 15:14:55;;;;;;;15.07;9.05;;;25.60;49.70;;;;;;6280177;28;20426;-83
2022/09/30 15:17:58;;;;;;;25.88;16.15;;;25.30;49.90;;;;;;6282034;28;20049;-84
2022/09/30 15:21:10;;;;;;;5.13;2.08;;;25.00;50.80;;;;;;6275886;28;20048;-83
2022/09/30 15:24:12;;;;;;;2.55;0.90;;;24.40;51.60;;;;;;6270580;28;20041;-83
2022/09/30 15:27:19;;;;;;;3.72;1.63;;;23.90;52.90;;;;;;6277873;28;20048;-83
2022/09/30 15:30:27;;;;;;;3.20;1.20;;;23.40;53.80;;;;;;6279310;28;20049;-82
2022/09/30 15:33:31;;;;;;;2.78;1.52;;;22.90;55.20;;;;;;6280087;28;20058;-84
2022/09/30 15:36:35;;;;;;;6.40;1.40;;;22.60;55.60;;;;;;6277013;28;20132;-83
2022/09/30 15:43:02;;;;;;;6.90;1.65;;;21.80;57.50;;;;;;6276699;28;20037;-83
2022/09/30 15:46:27;;;;;;;4.93;1.52;;;21.50;59.80;;;;;;6278545;28;20060;-83
2022/09/30 15:49:46;;;;;;;7.07;1.42;;;21.20;59.80;;;;;;6277556;28;20048;-83
2022/09/30 15:52:50;;;;;;;2.15;1.17;;;20.80;60.10;;;;;;6265026;28;20518;-83
2022/09/30 15:55:54;;;;;;;3.03;1.48;;;20.40;60.90;;;;;;6276349;28;20108;-83
2022/09/30 15:58:57;;;;;;;3.83;1.33;;;20.10;62.30;;;;;;6278152;28;20128;-83
2022/09/30 16:02:00;;;;;;;3.85;1.35;;;20.00;64.10;;;;;;6279304;28;20052;-83
2022/09/30 16:05:05;;;;;;;1.70;0.77;;;19.80;64.30;;;;;;6276327;28;20060;-82
2022/09/30 16:08:08;;;;;;;3.63;1.45;;;19.60;65.30;;;;;;6280324;28;20049;-83
2022/09/30 16:11:19;;;;;;;3.88;1.77;;;19.40;66.60;;;;;;6280007;28;20045;-82
2022/09/30 16:14:25;;;;;;;3.40;1.27;;;19.20;67.90;;;;;;6279290;28;20506;-82